Aviation

FTHA31 MTPP 282200
TAF MTPP 282200Z 2900/3000 30014KT 9999 FEW026
PROB30 TEMPO 2903/2906 4500 SHRA SCT026
BECMG 2906/2910 VRB02KT 8000 FEW020
FM291100 11010KT 9999 FEW024
BECMG 2919/2900 27010KT =